sensor_id;sensor_type;location;lat;lon;timestamp;temperature;humidity
582;DHT22;277;50.074;8.436;2023-05-01T00:02:24;12.50;99.90
582;DHT22;277;50.074;8.436;2023-05-01T00:04:52;12.50;99.90
582;DHT22;277;50.074;8.436;2023-05-01T00:07:20;12.50;99.90
582;DHT22;277;50.074;8.436;2023-05-01T00:09:49;12.50;99.90
582;DHT22;277;50.074;8.436;2023-05-01T00:12:17;12.50;99.90
582;DHT22;277;50.074;8.436;2023-05-01T00:14:45;12.50;99.90
582;DHT22;277;50.074;8.436;2023-05-01T00:17:12;12.40;99.90
582;DHT22;277;50.074;8.436;2023-05-01T00:19:42;12.40;99.90
582;DHT22;277;50.074;8.436;2023-05-01T00:22:10;12.40;99.90
582;DHT22;277;50.074;8.436;2023-05-01T00:24:37;12.40;99.90
582;DHT22;277;50.074;8.436;2023-05-01T00:27:05;12.40;99.90
582;DHT22;277;50.074;8.436;2023-05-01T00:29:33;12.40;99.90
582;DHT22;277;50.074;8.436;2023-05-01T00:32:01;12.40;99.90
582;DHT22;277;50.074;8.436;2023-05-01T00:34:31;12.40;99.90
582;DHT22;277;50.074;8.436;2023-05-01T00:37:00;12.30;99.90
582;DHT22;277;50.074;8.436;2023-05-01T00:39:28;12.40;99.90
582;DHT22;277;50.074;8.436;2023-05-01T00:41:56;12.40;99.90
582;DHT22;277;50.074;8.436;2023-05-01T00:44:23;12.40;99.90
582;DHT22;277;50.074;8.436;2023-05-01T00:46:52;12.30;99.90
582;DHT22;277;50.074;8.436;2023-05-01T00:49:22;12.30;99.90
582;DHT22;277;50.074;8.436;2023-05-01T00:51:50;12.20;99.90
582;DHT22;277;50.074;8.436;2023-05-01T00:54:21;12.30;99.90
582;DHT22;277;50.074;8.436;2023-05-01T00:56:51;12.30;99.90
582;DHT22;277;50.074;8.436;2023-05-01T00:59:19;12.30;99.90
582;DHT22;277;50.074;8.436;2023-05-01T01:01:47;12.30;99.90
582;DHT22;277;50.074;8.436;2023-05-01T01:04:19;12.20;99.90
582;DHT22;277;50.074;8.436;2023-05-01T01:06:53;12.40;99.90
582;DHT22;277;50.074;8.436;2023-05-01T01:09:30;12.40;99.90
582;DHT22;277;50.074;8.436;2023-05-01T01:12:15;12.40;99.90
582;DHT22;277;50.074;8.436;2023-05-01T01:14:51;12.50;99.90
582;DHT22;277;50.074;8.436;2023-05-01T01:17:28;12.30;99.90
582;DHT22;277;50.074;8.436;2023-05-01T01:20:16;12.20;99.90
582;DHT22;277;50.074;8.436;2023-05-01T01:22:50;12.10;99.90
582;DHT22;277;50.074;8.436;2023-05-01T01:25:58;11.90;99.90
582;DHT22;277;50.074;8.436;2023-05-01T01:31:35;11.90;99.90
582;DHT22;277;50.074;8.436;2023-05-01T01:34:12;11.80;99.90
582;DHT22;277;50.074;8.436;2023-05-01T01:36:46;11.80;99.90
582;DHT22;277;50.074;8.436;2023-05-01T01:39:24;11.80;99.90
582;DHT22;277;50.074;8.436;2023-05-01T01:41:56;11.70;99.90
582;DHT22;277;50.074;8.436;2023-05-01T01:44:29;11.70;99.90
582;DHT22;277;50.074;8.436;2023-05-01T01:47:03;11.80;99.90
582;DHT22;277;50.074;8.436;2023-05-01T01:49:34;11.70;99.90
582;DHT22;277;50.074;8.436;2023-05-01T01:52:05;11.70;99.90
582;DHT22;277;50.074;8.436;2023-05-01T01:54:37;11.70;99.90
582;DHT22;277;50.074;8.436;2023-05-01T01:57:08;11.60;99.90
582;DHT22;277;50.074;8.436;2023-05-01T01:59:39;11.60;99.90
582;DHT22;277;50.074;8.436;2023-05-01T02:02:09;11.60;99.90
582;DHT22;277;50.074;8.436;2023-05-01T02:04:41;11.60;99.90
582;DHT22;277;50.074;8.436;2023-05-01T02:07:10;11.50;99.90
582;DHT22;277;50.074;8.436;2023-05-01T02:09:40;11.50;99.90
582;DHT22;277;50.074;8.436;2023-05-01T02:12:10;11.50;99.90
582;DHT22;277;50.074;8.436;2023-05-01T02:14:39;11.60;99.90
582;DHT22;277;50.074;8.436;2023-05-01T02:17:08;11.50;99.90
582;DHT22;277;50.074;8.436;2023-05-01T02:19:38;11.50;99.90
582;DHT22;277;50.074;8.436;2023-05-01T02:22:08;11.50;99.90
582;DHT22;277;50.074;8.436;2023-05-01T02:24:37;11.50;99.90
582;DHT22;277;50.074;8.436;2023-05-01T02:27:11;11.60;99.90
582;DHT22;277;50.074;8.436;2023-05-01T02:29:40;11.60;99.90
582;DHT22;277;50.074;8.436;2023-05-01T02:32:08;11.60;99.90
582;DHT22;277;50.074;8.436;2023-05-01T02:34:36;11.60;99.90
582;DHT22;277;50.074;8.436;2023-05-01T02:37:06;11.60;99.90
582;DHT22;277;50.074;8.436;2023-05-01T02:39:34;11.60;99.90
582;DHT22;277;50.074;8.436;2023-05-01T02:42:02;11.60;99.90
582;DHT22;277;50.074;8.436;2023-05-01T02:44:37;11.50;99.90
582;DHT22;277;50.074;8.436;2023-05-01T02:47:08;11.40;99.90
582;DHT22;277;50.074;8.436;2023-05-01T02:49:37;11.40;99.90
582;DHT22;277;50.074;8.436;2023-05-01T02:52:08;11.30;99.90
582;DHT22;277;50.074;8.436;2023-05-01T02:54:37;11.40;99.90
582;DHT22;277;50.074;8.436;2023-05-01T02:57:05;11.40;99.90
582;DHT22;277;50.074;8.436;2023-05-01T02:59:33;11.30;99.90
582;DHT22;277;50.074;8.436;2023-05-01T03:02:01;11.20;99.90
582;DHT22;277;50.074;8.436;2023-05-01T03:04:29;11.10;99.90
582;DHT22;277;50.074;8.436;2023-05-01T03:06:57;11.00;99.90
582;DHT22;277;50.074;8.436;2023-05-01T03:09:26;11.00;99.90
582;DHT22;277;50.074;8.436;2023-05-01T03:11:54;11.20;99.90
582;DHT22;277;50.074;8.436;2023-05-01T03:14:22;11.20;99.90
582;DHT22;277;50.074;8.436;2023-05-01T03:16:50;11.10;99.90
582;DHT22;277;50.074;8.436;2023-05-01T03:19:18;11.10;99.90
582;DHT22;277;50.074;8.436;2023-05-01T03:21:46;11.00;99.90
582;DHT22;277;50.074;8.436;2023-05-01T03:24:14;11.10;99.90
582;DHT22;277;50.074;8.436;2023-05-01T03:26:43;11.00;99.90
582;DHT22;277;50.074;8.436;2023-05-01T03:29:11;11.00;99.90
582;DHT22;277;50.074;8.436;2023-05-01T03:31:39;10.80;99.90
582;DHT22;277;50.074;8.436;2023-05-01T03:34:07;10.70;99.90
582;DHT22;277;50.074;8.436;2023-05-01T03:36:35;10.80;99.90
582;DHT22;277;50.074;8.436;2023-05-01T03:39:03;10.80;99.90
582;DHT22;277;50.074;8.436;2023-05-01T03:41:34;10.80;99.90
582;DHT22;277;50.074;8.436;2023-05-01T03:44:03;10.80;99.90
582;DHT22;277;50.074;8.436;2023-05-01T03:46:31;10.80;99.90
582;DHT22;277;50.074;8.436;2023-05-01T03:48:59;10.80;99.90
582;DHT22;277;50.074;8.436;2023-05-01T03:51:27;11.00;99.90
582;DHT22;277;50.074;8.436;2023-05-01T03:53:55;11.10;99.90
582;DHT22;277;50.074;8.436;2023-05-01T03:56:24;11.10;99.90
582;DHT22;277;50.074;8.436;2023-05-01T03:58:53;11.20;99.90
582;DHT22;277;50.074;8.436;2023-05-01T04:01:22;11.10;99.90
582;DHT22;277;50.074;8.436;2023-05-01T04:03:50;11.10;99.90
582;DHT22;277;50.074;8.436;2023-05-01T04:06:18;10.90;99.90
582;DHT22;277;50.074;8.436;2023-05-01T04:08:46;10.80;99.90
582;DHT22;277;50.074;8.436;2023-05-01T04:11:14;10.90;99.90
582;DHT22;277;50.074;8.436;2023-05-01T04:13:42;10.80;99.90
582;DHT22;277;50.074;8.436;2023-05-01T04:16:09;10.70;99.90
582;DHT22;277;50.074;8.436;2023-05-01T04:18:39;10.70;99.90
582;DHT22;277;50.074;8.436;2023-05-01T04:21:07;10.60;99.90
582;DHT22;277;50.074;8.436;2023-05-01T04:23:35;10.60;99.90
582;DHT22;277;50.074;8.436;2023-05-01T04:26:03;10.70;99.90
582;DHT22;277;50.074;8.436;2023-05-01T04:28:31;10.60;99.90
582;DHT22;277;50.074;8.436;2023-05-01T04:30:59;10.60;99.90
582;DHT22;277;50.074;8.436;2023-05-01T04:33:27;10.70;99.90
582;DHT22;277;50.074;8.436;2023-05-01T04:35:56;10.70;99.90
582;DHT22;277;50.074;8.436;2023-05-01T04:38:24;10.80;99.90
582;DHT22;277;50.074;8.436;2023-05-01T04:40:52;10.90;99.90
582;DHT22;277;50.074;8.436;2023-05-01T04:43:20;10.90;99.90
582;DHT22;277;50.074;8.436;2023-05-01T04:45:48;10.80;99.90
582;DHT22;277;50.074;8.436;2023-05-01T04:48:16;10.90;99.90
582;DHT22;277;50.074;8.436;2023-05-01T04:50:44;11.00;99.90
582;DHT22;277;50.074;8.436;2023-05-01T04:53:13;11.00;99.90
582;DHT22;277;50.074;8.436;2023-05-01T04:55:41;11.10;99.90
582;DHT22;277;50.074;8.436;2023-05-01T04:58:09;11.10;99.90
582;DHT22;277;50.074;8.436;2023-05-01T05:00:37;11.10;99.90
582;DHT22;277;50.074;8.436;2023-05-01T05:03:05;11.20;99.90
582;DHT22;277;50.074;8.436;2023-05-01T05:05:33;11.20;99.90
582;DHT22;277;50.074;8.436;2023-05-01T05:08:01;11.30;99.90
582;DHT22;277;50.074;8.436;2023-05-01T05:10:31;11.30;99.90
582;DHT22;277;50.074;8.436;2023-05-01T05:12:59;11.30;99.90
582;DHT22;277;50.074;8.436;2023-05-01T05:15:26;11.30;99.90
582;DHT22;277;50.074;8.436;2023-05-01T05:17:54;11.30;99.90
582;DHT22;277;50.074;8.436;2023-05-01T05:20:22;11.30;99.90
582;DHT22;277;50.074;8.436;2023-05-01T05:22:50;11.40;99.90
582;DHT22;277;50.074;8.436;2023-05-01T05:25:18;11.40;99.90
582;DHT22;277;50.074;8.436;2023-05-01T05:27:47;11.50;99.90
582;DHT22;277;50.074;8.436;2023-05-01T05:30:15;11.50;99.90
582;DHT22;277;50.074;8.436;2023-05-01T05:32:43;11.60;99.90
582;DHT22;277;50.074;8.436;2023-05-01T05:35:13;11.60;99.90
582;DHT22;277;50.074;8.436;2023-05-01T05:37:41;11.60;99.90
582;DHT22;277;50.074;8.436;2023-05-01T05:40:12;11.70;99.90
582;DHT22;277;50.074;8.436;2023-05-01T05:42:40;11.70;99.90
582;DHT22;277;50.074;8.436;2023-05-01T05:45:09;11.80;99.90
582;DHT22;277;50.074;8.436;2023-05-01T05:47:38;11.90;99.90
582;DHT22;277;50.074;8.436;2023-05-01T05:50:07;12.00;99.90
582;DHT22;277;50.074;8.436;2023-05-01T05:52:35;12.10;99.90
582;DHT22;277;50.074;8.436;2023-05-01T05:55:04;12.30;99.90
582;DHT22;277;50.074;8.436;2023-05-01T05:57:32;12.30;99.90
582;DHT22;277;50.074;8.436;2023-05-01T06:00:02;12.40;99.90
582;DHT22;277;50.074;8.436;2023-05-01T06:02:33;12.40;99.90
582;DHT22;277;50.074;8.436;2023-05-01T06:05:01;12.50;99.90
582;DHT22;277;50.074;8.436;2023-05-01T06:07:29;12.50;99.90
582;DHT22;277;50.074;8.436;2023-05-01T06:09:57;12.60;99.90
582;DHT22;277;50.074;8.436;2023-05-01T06:12:30;12.60;99.90
582;DHT22;277;50.074;8.436;2023-05-01T06:15:00;12.60;99.90
582;DHT22;277;50.074;8.436;2023-05-01T06:17:28;12.70;99.90
582;DHT22;277;50.074;8.436;2023-05-01T06:19:58;12.90;99.90
582;DHT22;277;50.074;8.436;2023-05-01T06:22:27;13.00;99.90
582;DHT22;277;50.074;8.436;2023-05-01T06:24:55;13.10;99.90
582;DHT22;277;50.074;8.436;2023-05-01T06:27:23;13.30;99.90
582;DHT22;277;50.074;8.436;2023-05-01T06:29:51;13.40;99.90
582;DHT22;277;50.074;8.436;2023-05-01T06:32:19;13.60;99.90
582;DHT22;277;50.074;8.436;2023-05-01T06:34:47;13.70;99.90
582;DHT22;277;50.074;8.436;2023-05-01T06:37:16;13.70;99.90
582;DHT22;277;50.074;8.436;2023-05-01T06:39:44;13.70;99.90
582;DHT22;277;50.074;8.436;2023-05-01T06:42:12;13.80;99.90
582;DHT22;277;50.074;8.436;2023-05-01T06:44:41;13.80;99.90
582;DHT22;277;50.074;8.436;2023-05-01T06:47:09;13.80;99.90
582;DHT22;277;50.074;8.436;2023-05-01T06:49:37;13.90;99.90
582;DHT22;277;50.074;8.436;2023-05-01T06:52:05;13.90;99.90
582;DHT22;277;50.074;8.436;2023-05-01T06:54:34;14.00;99.90
582;DHT22;277;50.074;8.436;2023-05-01T06:57:02;14.00;99.90
582;DHT22;277;50.074;8.436;2023-05-01T06:59:30;14.10;99.90
582;DHT22;277;50.074;8.436;2023-05-01T07:01:58;14.20;99.90
582;DHT22;277;50.074;8.436;2023-05-01T07:04:26;14.20;99.90
582;DHT22;277;50.074;8.436;2023-05-01T07:06:54;14.30;99.90
582;DHT22;277;50.074;8.436;2023-05-01T07:09:22;14.30;99.90
582;DHT22;277;50.074;8.436;2023-05-01T07:11:51;14.20;99.90
582;DHT22;277;50.074;8.436;2023-05-01T07:14:19;14.20;99.90
582;DHT22;277;50.074;8.436;2023-05-01T07:16:47;14.30;99.90
582;DHT22;277;50.074;8.436;2023-05-01T07:19:15;14.30;99.90
582;DHT22;277;50.074;8.436;2023-05-01T07:21:43;14.30;99.90
582;DHT22;277;50.074;8.436;2023-05-01T07:24:11;14.30;99.90
582;DHT22;277;50.074;8.436;2023-05-01T07:26:38;14.20;99.90
582;DHT22;277;50.074;8.436;2023-05-01T07:29:08;14.30;99.90
582;DHT22;277;50.074;8.436;2023-05-01T07:31:36;14.20;99.90
582;DHT22;277;50.074;8.436;2023-05-01T07:34:05;14.20;99.90
582;DHT22;277;50.074;8.436;2023-05-01T07:36:33;14.20;99.90
582;DHT22;277;50.074;8.436;2023-05-01T07:39:01;14.40;99.90
582;DHT22;277;50.074;8.436;2023-05-01T07:41:29;14.30;99.90
582;DHT22;277;50.074;8.436;2023-05-01T07:43:57;14.30;99.90
582;DHT22;277;50.074;8.436;2023-05-01T07:46:26;14.40;99.90
582;DHT22;277;50.074;8.436;2023-05-01T07:48:55;14.50;99.90
582;DHT22;277;50.074;8.436;2023-05-01T07:51:23;14.60;99.90
582;DHT22;277;50.074;8.436;2023-05-01T07:53:50;14.60;99.90
582;DHT22;277;50.074;8.436;2023-05-01T07:56:18;14.70;99.90
582;DHT22;277;50.074;8.436;2023-05-01T07:58:47;14.90;99.90
582;DHT22;277;50.074;8.436;2023-05-01T08:01:14;15.00;99.90
582;DHT22;277;50.074;8.436;2023-05-01T08:03:44;15.10;99.90
582;DHT22;277;50.074;8.436;2023-05-01T08:06:15;15.10;99.90
582;DHT22;277;50.074;8.436;2023-05-01T08:08:43;15.10;99.90
582;DHT22;277;50.074;8.436;2023-05-01T08:11:11;15.20;99.90
582;DHT22;277;50.074;8.436;2023-05-01T08:13:38;15.30;99.90
582;DHT22;277;50.074;8.436;2023-05-01T08:16:06;15.30;99.90
582;DHT22;277;50.074;8.436;2023-05-01T08:18:34;15.30;99.90
582;DHT22;277;50.074;8.436;2023-05-01T08:21:04;15.40;99.90
582;DHT22;277;50.074;8.436;2023-05-01T08:23:32;15.70;99.90
582;DHT22;277;50.074;8.436;2023-05-01T08:26:00;15.80;99.90
582;DHT22;277;50.074;8.436;2023-05-01T08:28:28;15.80;99.90
582;DHT22;277;50.074;8.436;2023-05-01T08:30:55;15.90;99.90
582;DHT22;277;50.074;8.436;2023-05-01T08:33:23;16.00;99.90
582;DHT22;277;50.074;8.436;2023-05-01T08:35:52;15.90;99.90
582;DHT22;277;50.074;8.436;2023-05-01T08:38:21;15.90;99.90
582;DHT22;277;50.074;8.436;2023-05-01T08:40:51;16.10;99.90
582;DHT22;277;50.074;8.436;2023-05-01T08:43:19;16.10;99.90
582;DHT22;277;50.074;8.436;2023-05-01T08:45:47;16.20;99.90
582;DHT22;277;50.074;8.436;2023-05-01T08:48:16;16.30;99.90
582;DHT22;277;50.074;8.436;2023-05-01T08:50:46;16.30;99.90
582;DHT22;277;50.074;8.436;2023-05-01T08:53:15;16.50;99.90
582;DHT22;277;50.074;8.436;2023-05-01T08:55:46;16.50;99.90
582;DHT22;277;50.074;8.436;2023-05-01T08:58:16;16.50;99.90
582;DHT22;277;50.074;8.436;2023-05-01T09:00:46;16.60;99.90
582;DHT22;277;50.074;8.436;2023-05-01T09:03:14;16.60;99.90
582;DHT22;277;50.074;8.436;2023-05-01T09:05:44;16.70;99.90
582;DHT22;277;50.074;8.436;2023-05-01T09:08:12;16.90;99.90
582;DHT22;277;50.074;8.436;2023-05-01T09:10:43;16.90;99.90
582;DHT22;277;50.074;8.436;2023-05-01T09:13:13;17.00;99.90
582;DHT22;277;50.074;8.436;2023-05-01T09:15:41;17.10;99.90
582;DHT22;277;50.074;8.436;2023-05-01T09:18:10;17.10;99.90
582;DHT22;277;50.074;8.436;2023-05-01T09:20:39;17.10;99.90
582;DHT22;277;50.074;8.436;2023-05-01T09:23:07;17.20;99.90
582;DHT22;277;50.074;8.436;2023-05-01T09:25:35;17.10;99.90
582;DHT22;277;50.074;8.436;2023-05-01T09:28:04;17.20;99.90
582;DHT22;277;50.074;8.436;2023-05-01T09:30:35;17.10;99.90
582;DHT22;277;50.074;8.436;2023-05-01T09:33:04;17.20;99.90
582;DHT22;277;50.074;8.436;2023-05-01T09:35:47;17.40;99.90
582;DHT22;277;50.074;8.436;2023-05-01T09:38:20;17.70;99.90
582;DHT22;277;50.074;8.436;2023-05-01T09:40:49;17.90;99.90
582;DHT22;277;50.074;8.436;2023-05-01T09:43:24;17.90;99.90
582;DHT22;277;50.074;8.436;2023-05-01T09:46:02;18.10;99.90
582;DHT22;277;50.074;8.436;2023-05-01T09:48:32;18.10;99.90
582;DHT22;277;50.074;8.436;2023-05-01T09:51:19;18.40;99.90
582;DHT22;277;50.074;8.436;2023-05-01T09:53:47;18.70;99.90
582;DHT22;277;50.074;8.436;2023-05-01T09:56:15;18.80;99.90
582;DHT22;277;50.074;8.436;2023-05-01T09:58:44;19.00;99.90
582;DHT22;277;50.074;8.436;2023-05-01T10:01:13;19.10;99.90
582;DHT22;277;50.074;8.436;2023-05-01T10:03:43;19.10;99.90
582;DHT22;277;50.074;8.436;2023-05-01T10:06:11;19.40;99.90
582;DHT22;277;50.074;8.436;2023-05-01T10:08:53;20.00;99.90
582;DHT22;277;50.074;8.436;2023-05-01T10:11:21;20.30;99.30
582;DHT22;277;50.074;8.436;2023-05-01T10:14:05;20.60;99.90
582;DHT22;277;50.074;8.436;2023-05-01T10:16:36;20.80;99.00
582;DHT22;277;50.074;8.436;2023-05-01T10:19:05;21.00;98.30
582;DHT22;277;50.074;8.436;2023-05-01T10:21:33;21.30;99.10
582;DHT22;277;50.074;8.436;2023-05-01T10:24:02;21.30;96.90
582;DHT22;277;50.074;8.436;2023-05-01T10:26:32;21.50;97.90
582;DHT22;277;50.074;8.436;2023-05-01T10:29:01;21.80;97.60
582;DHT22;277;50.074;8.436;2023-05-01T10:31:29;22.20;97.00
582;DHT22;277;50.074;8.436;2023-05-01T10:34:00;22.50;96.50
582;DHT22;277;50.074;8.436;2023-05-01T10:36:33;22.50;95.80
582;DHT22;277;50.074;8.436;2023-05-01T10:39:03;22.60;95.90
582;DHT22;277;50.074;8.436;2023-05-01T10:42:00;22.60;94.60
582;DHT22;277;50.074;8.436;2023-05-01T10:44:29;22.40;95.00
582;DHT22;277;50.074;8.436;2023-05-01T10:46:58;22.20;95.00
582;DHT22;277;50.074;8.436;2023-05-01T10:50:03;22.10;95.00
582;DHT22;277;50.074;8.436;2023-05-01T10:55:34;22.30;94.00
582;DHT22;277;50.074;8.436;2023-05-01T10:58:02;22.30;93.30
582;DHT22;277;50.074;8.436;2023-05-01T11:00:31;22.40;93.30
582;DHT22;277;50.074;8.436;2023-05-01T11:03:33;22.40;94.20
582;DHT22;277;50.074;8.436;2023-05-01T11:06:06;22.60;94.90
582;DHT22;277;50.074;8.436;2023-05-01T11:08:35;22.90;94.10
582;DHT22;277;50.074;8.436;2023-05-01T11:14:09;23.20;92.40
582;DHT22;277;50.074;8.436;2023-05-01T11:16:41;23.60;92.60
582;DHT22;277;50.074;8.436;2023-05-01T11:19:10;23.80;92.50
582;DHT22;277;50.074;8.436;2023-05-01T11:21:40;23.80;91.00
582;DHT22;277;50.074;8.436;2023-05-01T11:24:08;23.90;91.70
582;DHT22;277;50.074;8.436;2023-05-01T11:26:37;24.00;91.20
582;DHT22;277;50.074;8.436;2023-05-01T11:29:06;23.70;90.00
582;DHT22;277;50.074;8.436;2023-05-01T11:31:36;23.70;90.30
582;DHT22;277;50.074;8.436;2023-05-01T11:34:07;24.20;90.10
582;DHT22;277;50.074;8.436;2023-05-01T11:36:47;24.20;90.60
582;DHT22;277;50.074;8.436;2023-05-01T11:39:16;24.10;89.40
582;DHT22;277;50.074;8.436;2023-05-01T11:41:44;23.60;89.20
582;DHT22;277;50.074;8.436;2023-05-01T11:44:14;23.90;89.20
582;DHT22;277;50.074;8.436;2023-05-01T11:46:43;23.80;87.80
582;DHT22;277;50.074;8.436;2023-05-01T11:49:11;23.70;90.20
582;DHT22;277;50.074;8.436;2023-05-01T11:51:40;23.70;86.50
582;DHT22;277;50.074;8.436;2023-05-01T11:54:10;24.00;87.90
582;DHT22;277;50.074;8.436;2023-05-01T11:56:41;24.30;86.00
582;DHT22;277;50.074;8.436;2023-05-01T11:59:11;24.60;85.80
582;DHT22;277;50.074;8.436;2023-05-01T12:01:39;25.00;86.00
582;DHT22;277;50.074;8.436;2023-05-01T12:04:10;25.20;85.10
582;DHT22;277;50.074;8.436;2023-05-01T12:06:39;24.80;84.40
582;DHT22;277;50.074;8.436;2023-05-01T12:09:15;24.70;84.90
582;DHT22;277;50.074;8.436;2023-05-01T12:11:43;24.60;85.70
582;DHT22;277;50.074;8.436;2023-05-01T12:14:13;24.50;86.30
582;DHT22;277;50.074;8.436;2023-05-01T12:16:42;24.50;86.30
582;DHT22;277;50.074;8.436;2023-05-01T12:19:12;25.10;87.20
582;DHT22;277;50.074;8.436;2023-05-01T12:21:40;25.30;83.40
582;DHT22;277;50.074;8.436;2023-05-01T12:24:11;25.40;82.60
582;DHT22;277;50.074;8.436;2023-05-01T12:26:40;25.30;81.40
582;DHT22;277;50.074;8.436;2023-05-01T12:29:09;25.50;81.70
582;DHT22;277;50.074;8.436;2023-05-01T12:31:45;25.80;82.70
582;DHT22;277;50.074;8.436;2023-05-01T12:34:13;26.10;80.60
582;DHT22;277;50.074;8.436;2023-05-01T12:36:41;26.20;81.40
582;DHT22;277;50.074;8.436;2023-05-01T12:39:20;25.60;81.70
582;DHT22;277;50.074;8.436;2023-05-01T12:41:49;24.90;81.50
582;DHT22;277;50.074;8.436;2023-05-01T12:44:19;24.40;81.40
582;DHT22;277;50.074;8.436;2023-05-01T12:46:54;24.20;82.30
582;DHT22;277;50.074;8.436;2023-05-01T12:49:23;24.10;82.60
582;DHT22;277;50.074;8.436;2023-05-01T12:51:53;24.10;82.70
582;DHT22;277;50.074;8.436;2023-05-01T12:54:23;24.10;83.30
582;DHT22;277;50.074;8.436;2023-05-01T12:56:52;24.20;84.60
582;DHT22;277;50.074;8.436;2023-05-01T12:59:21;24.20;83.40
582;DHT22;277;50.074;8.436;2023-05-01T13:01:56;23.90;84.10
582;DHT22;277;50.074;8.436;2023-05-01T13:04:25;23.50;85.00
582;DHT22;277;50.074;8.436;2023-05-01T13:06:53;23.30;86.50
582;DHT22;277;50.074;8.436;2023-05-01T13:09:24;23.20;86.20
582;DHT22;277;50.074;8.436;2023-05-01T13:11:59;23.30;88.40
582;DHT22;277;50.074;8.436;2023-05-01T13:14:28;23.40;86.10
582;DHT22;277;50.074;8.436;2023-05-01T13:16:57;23.80;85.90
582;DHT22;277;50.074;8.436;2023-05-01T13:19:26;24.50;85.70
582;DHT22;277;50.074;8.436;2023-05-01T13:21:55;24.80;83.90
582;DHT22;277;50.074;8.436;2023-05-01T13:24:35;24.70;83.50
582;DHT22;277;50.074;8.436;2023-05-01T13:27:03;24.70;84.10
582;DHT22;277;50.074;8.436;2023-05-01T13:29:32;24.50;85.10
582;DHT22;277;50.074;8.436;2023-05-01T13:32:02;24.70;84.30
582;DHT22;277;50.074;8.436;2023-05-01T13:34:32;25.40;82.80
582;DHT22;277;50.074;8.436;2023-05-01T13:37:01;25.10;81.10
582;DHT22;277;50.074;8.436;2023-05-01T13:39:30;24.90;82.50
582;DHT22;277;50.074;8.436;2023-05-01T13:41:58;24.60;82.10
582;DHT22;277;50.074;8.436;2023-05-01T13:44:29;24.00;82.70
582;DHT22;277;50.074;8.436;2023-05-01T13:47:02;23.10;84.80
582;DHT22;277;50.074;8.436;2023-05-01T13:49:30;22.80;85.90
582;DHT22;277;50.074;8.436;2023-05-01T13:51:58;22.80;85.90
582;DHT22;277;50.074;8.436;2023-05-01T13:54:26;23.10;87.60
582;DHT22;277;50.074;8.436;2023-05-01T13:56:55;23.00;85.40
582;DHT22;277;50.074;8.436;2023-05-01T13:59:23;23.20;86.40
582;DHT22;277;50.074;8.436;2023-05-01T14:01:51;22.80;87.10
582;DHT22;277;50.074;8.436;2023-05-01T14:04:19;22.60;87.50
582;DHT22;277;50.074;8.436;2023-05-01T14:06:47;22.50;88.10
582;DHT22;277;50.074;8.436;2023-05-01T14:09:16;22.40;89.60
582;DHT22;277;50.074;8.436;2023-05-01T14:11:45;22.40;89.50
582;DHT22;277;50.074;8.436;2023-05-01T14:14:16;22.20;87.20
582;DHT22;277;50.074;8.436;2023-05-01T14:16:49;22.10;86.90
582;DHT22;277;50.074;8.436;2023-05-01T14:19:17;22.00;86.80
582;DHT22;277;50.074;8.436;2023-05-01T14:21:45;22.00;86.80
582;DHT22;277;50.074;8.436;2023-05-01T14:24:14;21.90;86.50
582;DHT22;277;50.074;8.436;2023-05-01T14:26:44;21.70;87.30
582;DHT22;277;50.074;8.436;2023-05-01T14:29:21;21.60;86.10
582;DHT22;277;50.074;8.436;2023-05-01T14:31:50;21.50;85.30
582;DHT22;277;50.074;8.436;2023-05-01T14:34:20;21.40;84.60
582;DHT22;277;50.074;8.436;2023-05-01T14:36:48;21.40;84.80
582;DHT22;277;50.074;8.436;2023-05-01T14:39:16;21.40;84.50
582;DHT22;277;50.074;8.436;2023-05-01T14:41:45;21.10;87.00
582;DHT22;277;50.074;8.436;2023-05-01T14:44:17;20.90;87.30
582;DHT22;277;50.074;8.436;2023-05-01T14:46:47;20.90;90.60
582;DHT22;277;50.074;8.436;2023-05-01T14:49:19;20.80;90.10
582;DHT22;277;50.074;8.436;2023-05-01T14:51:47;20.80;89.50
582;DHT22;277;50.074;8.436;2023-05-01T14:54:15;20.80;90.70
582;DHT22;277;50.074;8.436;2023-05-01T14:56:44;20.60;90.20
582;DHT22;277;50.074;8.436;2023-05-01T14:59:15;20.60;90.20
582;DHT22;277;50.074;8.436;2023-05-01T15:01:43;20.60;91.40
582;DHT22;277;50.074;8.436;2023-05-01T15:04:11;20.60;91.50
582;DHT22;277;50.074;8.436;2023-05-01T15:06:39;20.70;89.50
582;DHT22;277;50.074;8.436;2023-05-01T15:09:07;20.70;91.40
582;DHT22;277;50.074;8.436;2023-05-01T15:11:35;20.80;90.50
582;DHT22;277;50.074;8.436;2023-05-01T15:14:03;20.80;91.60
582;DHT22;277;50.074;8.436;2023-05-01T15:16:32;20.60;90.10
582;DHT22;277;50.074;8.436;2023-05-01T15:19:00;20.30;90.70
582;DHT22;277;50.074;8.436;2023-05-01T15:21:28;20.20;91.10
582;DHT22;277;50.074;8.436;2023-05-01T15:23:57;20.30;91.70
582;DHT22;277;50.074;8.436;2023-05-01T15:26:25;20.60;91.70
582;DHT22;277;50.074;8.436;2023-05-01T15:28:52;20.90;91.60
582;DHT22;277;50.074;8.436;2023-05-01T15:31:20;21.50;91.30
582;DHT22;277;50.074;8.436;2023-05-01T15:33:49;22.00;90.80
582;DHT22;277;50.074;8.436;2023-05-01T15:36:17;22.30;90.10
582;DHT22;277;50.074;8.436;2023-05-01T15:38:46;22.20;89.10
582;DHT22;277;50.074;8.436;2023-05-01T15:41:14;22.40;90.00
582;DHT22;277;50.074;8.436;2023-05-01T15:43:44;22.10;88.00
582;DHT22;277;50.074;8.436;2023-05-01T15:46:12;21.80;88.10
582;DHT22;277;50.074;8.436;2023-05-01T15:48:41;21.60;88.00
582;DHT22;277;50.074;8.436;2023-05-01T15:51:11;21.40;90.10
582;DHT22;277;50.074;8.436;2023-05-01T15:53:39;21.20;89.70
582;DHT22;277;50.074;8.436;2023-05-01T15:56:06;21.20;90.30
582;DHT22;277;50.074;8.436;2023-05-01T15:58:35;21.10;90.30
582;DHT22;277;50.074;8.436;2023-05-01T16:01:03;21.20;89.90
582;DHT22;277;50.074;8.436;2023-05-01T16:03:31;21.40;89.80
582;DHT22;277;50.074;8.436;2023-05-01T16:05:59;21.40;90.00
582;DHT22;277;50.074;8.436;2023-05-01T16:08:30;21.40;89.90
582;DHT22;277;50.074;8.436;2023-05-01T16:10:58;21.10;90.10
582;DHT22;277;50.074;8.436;2023-05-01T16:13:26;20.70;91.00
582;DHT22;277;50.074;8.436;2023-05-01T16:15:54;20.50;91.00
582;DHT22;277;50.074;8.436;2023-05-01T16:18:23;20.20;90.90
582;DHT22;277;50.074;8.436;2023-05-01T16:20:51;20.10;91.20
582;DHT22;277;50.074;8.436;2023-05-01T16:23:20;20.00;91.40
582;DHT22;277;50.074;8.436;2023-05-01T16:25:49;20.00;91.60
582;DHT22;277;50.074;8.436;2023-05-01T16:28:17;20.00;91.10
582;DHT22;277;50.074;8.436;2023-05-01T16:30:45;19.90;91.40
582;DHT22;277;50.074;8.436;2023-05-01T16:33:16;19.80;91.60
582;DHT22;277;50.074;8.436;2023-05-01T16:35:46;19.90;92.10
582;DHT22;277;50.074;8.436;2023-05-01T16:38:15;19.90;92.20
582;DHT22;277;50.074;8.436;2023-05-01T16:40:43;19.90;92.90
582;DHT22;277;50.074;8.436;2023-05-01T16:43:13;19.80;92.20
582;DHT22;277;50.074;8.436;2023-05-01T16:45:41;19.70;92.60
582;DHT22;277;50.074;8.436;2023-05-01T16:48:09;19.70;92.20
582;DHT22;277;50.074;8.436;2023-05-01T16:50:38;19.80;93.20
582;DHT22;277;50.074;8.436;2023-05-01T16:53:07;19.90;93.50
582;DHT22;277;50.074;8.436;2023-05-01T16:55:35;19.90;92.50
582;DHT22;277;50.074;8.436;2023-05-01T16:58:03;19.80;92.00
582;DHT22;277;50.074;8.436;2023-05-01T17:00:33;19.70;91.90